createdAt,value
2023-03-01T00:03:38.399Z,6.90
2023-03-01T00:14:37.986Z,7.90
2023-03-01T00:25:37.882Z,7.10
2023-03-01T00:36:37.737Z,6.30
2023-03-01T00:47:37.621Z,6.40
2023-03-01T00:58:37.549Z,7.10
2023-03-01T01:09:37.379Z,6.70
2023-03-01T01:20:37.263Z,6.20
2023-03-01T01:31:37.174Z,5.70
2023-03-01T01:42:37.044Z,7.00
2023-03-01T01:53:36.898Z,7.70
2023-03-01T02:04:36.780Z,6.70
2023-03-01T02:15:36.685Z,6.80
2023-03-01T02:26:36.535Z,7.90
2023-03-01T02:37:36.442Z,7.70
2023-03-01T02:48:36.299Z,7.10
2023-03-01T02:59:36.174Z,6.60
2023-03-01T03:10:36.060Z,8.00
2023-03-01T03:21:35.929Z,8.00
2023-03-01T03:32:35.809Z,7.50
2023-03-01T03:43:35.734Z,6.90
2023-03-01T03:54:35.566Z,8.30
2023-03-01T04:05:35.493Z,7.60
2023-03-01T04:16:35.376Z,6.00
2023-03-01T04:27:35.205Z,7.50
2023-03-01T04:38:35.092Z,6.20
2023-03-01T04:49:34.993Z,6.40
2023-03-01T05:00:34.864Z,7.50
2023-03-01T05:11:34.723Z,9.30
2023-03-01T05:22:34.600Z,7.50
2023-03-01T05:33:34.480Z,9.30
2023-03-01T05:44:34.369Z,9.80
2023-03-01T05:55:34.250Z,9.10
2023-03-01T06:06:34.515Z,8.70
2023-03-01T06:17:34.005Z,8.50
2023-03-01T06:28:33.924Z,9.10
2023-03-01T06:39:33.772Z,7.70
2023-03-01T06:50:33.689Z,8.10
2023-03-01T07:01:33.539Z,9.40
2023-03-01T07:12:33.438Z,9.30
2023-03-01T07:23:33.281Z,7.90
2023-03-01T07:34:33.164Z,8.80
2023-03-01T07:45:33.060Z,9.20
2023-03-01T07:56:33.131Z,8.90
2023-03-01T08:07:32.793Z,10.40
2023-03-01T08:18:32.724Z,7.60
2023-03-01T08:29:32.551Z,8.60
2023-03-01T08:40:32.434Z,10.50
2023-03-01T08:51:32.333Z,8.00
2023-03-01T09:02:32.213Z,11.40
2023-03-01T09:13:32.093Z,10.90
2023-03-01T09:24:31.940Z,12.80
2023-03-01T09:35:31.884Z,14.10
2023-03-01T09:46:32.080Z,12.80
2023-03-01T09:57:31.570Z,14.00
2023-03-01T10:08:31.452Z,15.90
2023-03-01T10:19:31.328Z,13.40
2023-03-01T10:30:31.225Z,12.30
2023-03-01T10:41:31.414Z,13.00
2023-03-01T10:52:30.965Z,13.30
2023-03-01T11:03:30.845Z,12.10
2023-03-01T11:14:30.767Z,12.40
2023-03-01T11:25:30.597Z,11.70
2023-03-01T11:36:30.492Z,13.10
2023-03-01T11:47:30.587Z,13.30
2023-03-01T11:58:30.224Z,14.20
2023-03-01T12:09:30.108Z,11.90
2023-03-01T12:20:29.976Z,14.00
2023-03-01T12:31:30.363Z,12.70
2023-03-01T12:42:29.760Z,11.70
2023-03-01T12:53:29.615Z,12.60
2023-03-01T13:04:29.487Z,12.40
2023-03-01T13:15:29.358Z,11.10
2023-03-01T13:26:29.549Z,12.10
2023-03-01T13:37:29.132Z,10.90
2023-03-01T13:48:28.987Z,12.20
2023-03-01T13:59:28.867Z,11.50
2023-03-01T14:10:28.754Z,11.20
2023-03-01T14:21:28.619Z,9.60
2023-03-01T14:32:28.582Z,9.60
2023-03-01T14:43:28.410Z,10.10
2023-03-01T14:54:28.260Z,9.90
2023-03-01T15:05:28.130Z,8.20
2023-03-01T15:16:28.025Z,8.70
2023-03-01T15:27:27.905Z,8.30
2023-03-01T15:38:27.926Z,5.80
2023-03-01T15:49:27.692Z,8.20
2023-03-01T16:00:27.575Z,6.70
2023-03-01T16:11:27.396Z,6.80
2023-03-01T16:22:27.267Z,8.20
2023-03-01T16:33:33.551Z,6.70
2023-03-01T16:44:27.026Z,7.50
2023-03-01T16:55:26.935Z,8.30
2023-03-01T17:06:26.794Z,7.00
2023-03-01T17:17:26.662Z,6.60
2023-03-01T17:28:26.537Z,8.60
2023-03-01T17:39:26.417Z,7.20
2023-03-01T17:50:26.307Z,9.30
2023-03-01T18:01:26.203Z,9.20
2023-03-01T18:12:26.055Z,8.90
2023-03-01T18:23:25.940Z,8.60
2023-03-01T18:34:25.798Z,8.10
2023-03-01T18:45:25.684Z,8.90
2023-03-01T18:56:25.572Z,8.30
2023-03-01T19:07:25.430Z,10.10
2023-03-01T19:11:20.400Z,11.60
2023-03-01T19:22:25.271Z,8.90
2023-03-01T19:33:25.147Z,9.40
2023-03-01T19:44:25.141Z,10.00
2023-03-01T19:55:24.890Z,10.10
2023-03-01T20:06:24.765Z,10.00
2023-03-01T20:17:24.659Z,11.30
2023-03-01T20:28:24.523Z,11.30
2023-03-01T20:39:24.400Z,10.90
2023-03-01T20:50:24.335Z,10.10
2023-03-01T21:01:24.156Z,10.50
2023-03-01T21:12:24.078Z,9.20
2023-03-01T21:23:23.964Z,10.00
2023-03-01T21:34:23.827Z,10.60
2023-03-01T21:45:23.713Z,10.10
2023-03-01T21:56:23.548Z,10.20
2023-03-01T22:07:23.423Z,8.70
2023-03-01T22:18:23.292Z,10.10
2023-03-01T22:29:23.272Z,12.70
2023-03-01T22:40:23.060Z,8.60
2023-03-01T22:51:22.944Z,9.00
2023-03-01T23:02:23.029Z,9.40
2023-03-01T23:13:22.692Z,10.00
2023-03-01T23:24:22.666Z,12.30
2023-03-01T23:35:22.495Z,9.50
2023-03-01T23:46:22.401Z,10.30
2023-03-01T23:57:22.226Z,12.60
